sensor_id;sensor_type;location;lat;lon;timestamp;temperature;humidity
15959;DHT22;8078;47.822;9.402;2023-07-30T00:01:07;15.40;99.90
15959;DHT22;8078;47.822;9.402;2023-07-30T00:03:32;15.40;99.90
15959;DHT22;8078;47.822;9.402;2023-07-30T00:05:58;15.40;99.90
15959;DHT22;8078;47.822;9.402;2023-07-30T00:08:23;15.30;99.90
15959;DHT22;8078;47.822;9.402;2023-07-30T00:10:49;15.30;99.90
15959;DHT22;8078;47.822;9.402;2023-07-30T00:13:15;15.30;99.90
15959;DHT22;8078;47.822;9.402;2023-07-30T00:15:41;15.30;99.90
15959;DHT22;8078;47.822;9.402;2023-07-30T00:18:06;15.30;99.90
15959;DHT22;8078;47.822;9.402;2023-07-30T00:20:34;15.30;99.90
15959;DHT22;8078;47.822;9.402;2023-07-30T00:23:00;15.30;99.90
15959;DHT22;8078;47.822;9.402;2023-07-30T00:25:26;15.20;99.90
15959;DHT22;8078;47.822;9.402;2023-07-30T00:27:52;15.20;99.90
15959;DHT22;8078;47.822;9.402;2023-07-30T00:30:17;15.20;99.90
15959;DHT22;8078;47.822;9.402;2023-07-30T00:32:43;15.20;99.90
15959;DHT22;8078;47.822;9.402;2023-07-30T00:35:09;15.20;99.90
15959;DHT22;8078;47.822;9.402;2023-07-30T00:37:35;15.10;99.90
15959;DHT22;8078;47.822;9.402;2023-07-30T00:40:02;15.10;99.90
15959;DHT22;8078;47.822;9.402;2023-07-30T00:42:28;15.10;99.90
15959;DHT22;8078;47.822;9.402;2023-07-30T00:44:54;15.10;99.90
15959;DHT22;8078;47.822;9.402;2023-07-30T00:47:20;15.10;99.90
15959;DHT22;8078;47.822;9.402;2023-07-30T00:49:46;15.10;99.90
15959;DHT22;8078;47.822;9.402;2023-07-30T00:52:11;15.00;99.90
15959;DHT22;8078;47.822;9.402;2023-07-30T00:54:37;15.10;99.90
15959;DHT22;8078;47.822;9.402;2023-07-30T00:57:04;15.00;99.90
15959;DHT22;8078;47.822;9.402;2023-07-30T00:59:30;15.00;99.90
15959;DHT22;8078;47.822;9.402;2023-07-30T01:01:56;15.00;99.90
15959;DHT22;8078;47.822;9.402;2023-07-30T01:04:22;15.00;99.90
15959;DHT22;8078;47.822;9.402;2023-07-30T01:06:48;15.00;99.90
15959;DHT22;8078;47.822;9.402;2023-07-30T01:09:14;15.00;99.90
15959;DHT22;8078;47.822;9.402;2023-07-30T01:11:40;15.00;99.90
15959;DHT22;8078;47.822;9.402;2023-07-30T01:14:08;14.90;99.90
15959;DHT22;8078;47.822;9.402;2023-07-30T01:16:34;14.90;99.90
15959;DHT22;8078;47.822;9.402;2023-07-30T01:19:00;15.00;99.90
15959;DHT22;8078;47.822;9.402;2023-07-30T01:21:33;15.00;99.90
15959;DHT22;8078;47.822;9.402;2023-07-30T01:23:59;14.90;99.90
15959;DHT22;8078;47.822;9.402;2023-07-30T01:26:28;15.00;99.90
15959;DHT22;8078;47.822;9.402;2023-07-30T01:28:58;15.00;99.90
15959;DHT22;8078;47.822;9.402;2023-07-30T01:31:26;15.00;99.90
15959;DHT22;8078;47.822;9.402;2023-07-30T01:33:54;15.00;99.90
15959;DHT22;8078;47.822;9.402;2023-07-30T01:36:21;15.10;99.90
15959;DHT22;8078;47.822;9.402;2023-07-30T01:38:48;15.10;99.90
15959;DHT22;8078;47.822;9.402;2023-07-30T01:41:14;15.10;99.90
15959;DHT22;8078;47.822;9.402;2023-07-30T01:43:39;15.10;99.90
15959;DHT22;8078;47.822;9.402;2023-07-30T01:46:05;15.10;99.90
15959;DHT22;8078;47.822;9.402;2023-07-30T01:48:31;15.00;99.90
15959;DHT22;8078;47.822;9.402;2023-07-30T01:50:56;15.00;99.90
15959;DHT22;8078;47.822;9.402;2023-07-30T01:53:22;15.10;99.90
15959;DHT22;8078;47.822;9.402;2023-07-30T01:55:47;15.10;99.90
15959;DHT22;8078;47.822;9.402;2023-07-30T01:58:13;15.10;99.90
15959;DHT22;8078;47.822;9.402;2023-07-30T02:00:39;15.10;99.90
15959;DHT22;8078;47.822;9.402;2023-07-30T02:03:05;15.10;99.90
15959;DHT22;8078;47.822;9.402;2023-07-30T02:05:30;15.00;99.90
15959;DHT22;8078;47.822;9.402;2023-07-30T02:07:57;15.00;99.90
15959;DHT22;8078;47.822;9.402;2023-07-30T02:10:24;15.00;99.90
15959;DHT22;8078;47.822;9.402;2023-07-30T02:12:50;15.10;99.90
15959;DHT22;8078;47.822;9.402;2023-07-30T02:15:16;15.00;99.90
15959;DHT22;8078;47.822;9.402;2023-07-30T02:17:41;15.00;99.90
15959;DHT22;8078;47.822;9.402;2023-07-30T02:20:07;15.10;99.90
15959;DHT22;8078;47.822;9.402;2023-07-30T02:22:33;15.10;99.90
15959;DHT22;8078;47.822;9.402;2023-07-30T02:24:59;15.20;99.90
15959;DHT22;8078;47.822;9.402;2023-07-30T02:27:24;15.20;99.90
15959;DHT22;8078;47.822;9.402;2023-07-30T02:29:50;15.20;99.90
15959;DHT22;8078;47.822;9.402;2023-07-30T02:32:15;15.10;99.90
15959;DHT22;8078;47.822;9.402;2023-07-30T02:34:41;15.10;99.90
15959;DHT22;8078;47.822;9.402;2023-07-30T02:37:07;15.00;99.90
15959;DHT22;8078;47.822;9.402;2023-07-30T02:39:32;15.00;99.90
15959;DHT22;8078;47.822;9.402;2023-07-30T02:41:58;15.10;99.90
15959;DHT22;8078;47.822;9.402;2023-07-30T02:44:23;15.10;99.90
15959;DHT22;8078;47.822;9.402;2023-07-30T02:46:49;15.00;99.90
15959;DHT22;8078;47.822;9.402;2023-07-30T02:49:14;15.00;99.90
15959;DHT22;8078;47.822;9.402;2023-07-30T02:51:40;15.10;99.90
15959;DHT22;8078;47.822;9.402;2023-07-30T02:54:07;15.10;99.90
15959;DHT22;8078;47.822;9.402;2023-07-30T02:56:33;15.10;99.90
15959;DHT22;8078;47.822;9.402;2023-07-30T02:58:59;15.10;99.90
15959;DHT22;8078;47.822;9.402;2023-07-30T03:01:25;15.00;99.90
15959;DHT22;8078;47.822;9.402;2023-07-30T03:03:51;15.00;99.90
15959;DHT22;8078;47.822;9.402;2023-07-30T03:06:16;15.00;99.90
15959;DHT22;8078;47.822;9.402;2023-07-30T03:08:45;15.00;99.90
15959;DHT22;8078;47.822;9.402;2023-07-30T03:11:10;15.00;99.90
15959;DHT22;8078;47.822;9.402;2023-07-30T03:13:36;15.00;99.90
15959;DHT22;8078;47.822;9.402;2023-07-30T03:16:02;15.00;99.90
15959;DHT22;8078;47.822;9.402;2023-07-30T03:18:27;15.10;99.90
15959;DHT22;8078;47.822;9.402;2023-07-30T03:20:58;15.10;99.90
15959;DHT22;8078;47.822;9.402;2023-07-30T03:23:24;15.10;99.90
15959;DHT22;8078;47.822;9.402;2023-07-30T03:25:50;15.10;99.90
15959;DHT22;8078;47.822;9.402;2023-07-30T03:28:15;15.00;99.90
15959;DHT22;8078;47.822;9.402;2023-07-30T03:30:41;15.00;99.90
15959;DHT22;8078;47.822;9.402;2023-07-30T03:33:06;15.00;99.90
15959;DHT22;8078;47.822;9.402;2023-07-30T03:35:32;15.10;99.90
15959;DHT22;8078;47.822;9.402;2023-07-30T03:37:57;15.10;99.90
15959;DHT22;8078;47.822;9.402;2023-07-30T03:40:23;15.00;99.90
15959;DHT22;8078;47.822;9.402;2023-07-30T03:42:49;15.00;99.90
15959;DHT22;8078;47.822;9.402;2023-07-30T03:45:15;15.00;99.90
15959;DHT22;8078;47.822;9.402;2023-07-30T03:47:40;15.00;99.90
15959;DHT22;8078;47.822;9.402;2023-07-30T03:50:06;15.00;99.90
15959;DHT22;8078;47.822;9.402;2023-07-30T03:52:32;15.10;99.90
15959;DHT22;8078;47.822;9.402;2023-07-30T03:54:57;15.00;99.90
15959;DHT22;8078;47.822;9.402;2023-07-30T03:57:23;15.00;99.90
15959;DHT22;8078;47.822;9.402;2023-07-30T03:59:48;15.00;99.90
15959;DHT22;8078;47.822;9.402;2023-07-30T04:02:14;15.00;99.90
15959;DHT22;8078;47.822;9.402;2023-07-30T04:04:42;15.00;99.90
15959;DHT22;8078;47.822;9.402;2023-07-30T04:07:11;14.90;99.90
15959;DHT22;8078;47.822;9.402;2023-07-30T04:09:37;14.90;99.90
15959;DHT22;8078;47.822;9.402;2023-07-30T04:12:02;14.90;99.90
15959;DHT22;8078;47.822;9.402;2023-07-30T04:14:28;14.90;99.90
15959;DHT22;8078;47.822;9.402;2023-07-30T04:16:53;14.90;99.90
15959;DHT22;8078;47.822;9.402;2023-07-30T04:19:19;14.90;99.90
15959;DHT22;8078;47.822;9.402;2023-07-30T04:21:45;14.90;99.90
15959;DHT22;8078;47.822;9.402;2023-07-30T04:24:10;14.90;99.90
15959;DHT22;8078;47.822;9.402;2023-07-30T04:26:36;14.90;99.90
15959;DHT22;8078;47.822;9.402;2023-07-30T04:29:01;14.90;99.90
15959;DHT22;8078;47.822;9.402;2023-07-30T04:31:27;14.90;99.90
15959;DHT22;8078;47.822;9.402;2023-07-30T04:33:52;14.90;99.90
15959;DHT22;8078;47.822;9.402;2023-07-30T04:36:18;15.00;99.90
15959;DHT22;8078;47.822;9.402;2023-07-30T04:38:44;15.00;99.90
15959;DHT22;8078;47.822;9.402;2023-07-30T04:41:09;15.00;99.90
15959;DHT22;8078;47.822;9.402;2023-07-30T04:43:35;15.10;99.90
15959;DHT22;8078;47.822;9.402;2023-07-30T04:46:00;15.20;99.90
15959;DHT22;8078;47.822;9.402;2023-07-30T04:48:26;15.30;99.90
15959;DHT22;8078;47.822;9.402;2023-07-30T04:50:52;15.40;99.90
15959;DHT22;8078;47.822;9.402;2023-07-30T04:53:17;15.40;99.90
15959;DHT22;8078;47.822;9.402;2023-07-30T04:55:43;15.40;99.90
15959;DHT22;8078;47.822;9.402;2023-07-30T04:58:09;15.40;99.90
15959;DHT22;8078;47.822;9.402;2023-07-30T05:00:35;15.40;99.90
15959;DHT22;8078;47.822;9.402;2023-07-30T05:03:00;15.30;99.90
15959;DHT22;8078;47.822;9.402;2023-07-30T05:05:26;15.40;99.90
15959;DHT22;8078;47.822;9.402;2023-07-30T05:07:51;15.30;99.90
15959;DHT22;8078;47.822;9.402;2023-07-30T05:10:17;15.30;99.90
15959;DHT22;8078;47.822;9.402;2023-07-30T05:12:42;15.20;99.90
15959;DHT22;8078;47.822;9.402;2023-07-30T05:15:08;15.20;99.90
15959;DHT22;8078;47.822;9.402;2023-07-30T05:17:34;15.20;99.90
15959;DHT22;8078;47.822;9.402;2023-07-30T05:19:59;15.30;99.90
15959;DHT22;8078;47.822;9.402;2023-07-30T05:22:25;15.30;99.90
15959;DHT22;8078;47.822;9.402;2023-07-30T05:24:51;15.30;99.90
15959;DHT22;8078;47.822;9.402;2023-07-30T05:27:16;15.40;99.90
15959;DHT22;8078;47.822;9.402;2023-07-30T05:29:42;15.40;99.90
15959;DHT22;8078;47.822;9.402;2023-07-30T05:32:08;15.40;99.90
15959;DHT22;8078;47.822;9.402;2023-07-30T05:34:34;15.40;99.90
15959;DHT22;8078;47.822;9.402;2023-07-30T05:36:59;15.50;99.90
15959;DHT22;8078;47.822;9.402;2023-07-30T05:39:25;15.50;99.90
15959;DHT22;8078;47.822;9.402;2023-07-30T05:41:51;15.40;99.90
15959;DHT22;8078;47.822;9.402;2023-07-30T05:44:17;15.40;99.90
15959;DHT22;8078;47.822;9.402;2023-07-30T05:46:43;15.50;99.90
15959;DHT22;8078;47.822;9.402;2023-07-30T05:49:08;15.50;99.90
15959;DHT22;8078;47.822;9.402;2023-07-30T05:51:34;15.50;99.90
15959;DHT22;8078;47.822;9.402;2023-07-30T05:54:00;15.40;99.90
15959;DHT22;8078;47.822;9.402;2023-07-30T05:56:25;15.40;99.90
15959;DHT22;8078;47.822;9.402;2023-07-30T05:58:51;15.50;99.90
15959;DHT22;8078;47.822;9.402;2023-07-30T06:01:16;15.60;99.90
15959;DHT22;8078;47.822;9.402;2023-07-30T06:03:42;15.60;99.90
15959;DHT22;8078;47.822;9.402;2023-07-30T06:06:08;15.60;99.90
15959;DHT22;8078;47.822;9.402;2023-07-30T06:08:33;15.60;99.90
15959;DHT22;8078;47.822;9.402;2023-07-30T06:11:02;15.50;99.90
15959;DHT22;8078;47.822;9.402;2023-07-30T06:13:29;15.70;99.90
15959;DHT22;8078;47.822;9.402;2023-07-30T06:15:54;15.90;99.90
15959;DHT22;8078;47.822;9.402;2023-07-30T06:18:21;16.00;99.90
15959;DHT22;8078;47.822;9.402;2023-07-30T06:20:46;15.90;99.90
15959;DHT22;8078;47.822;9.402;2023-07-30T06:23:12;15.80;99.90
15959;DHT22;8078;47.822;9.402;2023-07-30T06:25:37;15.90;99.90
15959;DHT22;8078;47.822;9.402;2023-07-30T06:28:04;15.90;99.90
15959;DHT22;8078;47.822;9.402;2023-07-30T06:30:31;15.80;99.90
15959;DHT22;8078;47.822;9.402;2023-07-30T06:32:57;15.80;99.90
15959;DHT22;8078;47.822;9.402;2023-07-30T06:35:22;15.80;99.90
15959;DHT22;8078;47.822;9.402;2023-07-30T06:37:48;15.90;99.90
15959;DHT22;8078;47.822;9.402;2023-07-30T06:40:13;15.90;99.90
15959;DHT22;8078;47.822;9.402;2023-07-30T06:42:39;15.90;99.90
15959;DHT22;8078;47.822;9.402;2023-07-30T06:45:05;15.90;99.90
15959;DHT22;8078;47.822;9.402;2023-07-30T06:47:31;15.80;99.90
15959;DHT22;8078;47.822;9.402;2023-07-30T06:49:56;15.80;99.90
15959;DHT22;8078;47.822;9.402;2023-07-30T06:52:22;15.90;99.90
15959;DHT22;8078;47.822;9.402;2023-07-30T06:54:47;15.90;99.90
15959;DHT22;8078;47.822;9.402;2023-07-30T06:57:13;15.90;99.90
15959;DHT22;8078;47.822;9.402;2023-07-30T06:59:38;15.80;99.90
15959;DHT22;8078;47.822;9.402;2023-07-30T07:02:04;16.00;99.90
15959;DHT22;8078;47.822;9.402;2023-07-30T07:04:31;16.10;99.90
15959;DHT22;8078;47.822;9.402;2023-07-30T07:06:56;16.00;99.90
15959;DHT22;8078;47.822;9.402;2023-07-30T07:09:22;16.00;99.90
15959;DHT22;8078;47.822;9.402;2023-07-30T07:11:47;16.40;99.90
15959;DHT22;8078;47.822;9.402;2023-07-30T07:14:13;16.30;99.90
15959;DHT22;8078;47.822;9.402;2023-07-30T07:16:39;16.20;99.90
15959;DHT22;8078;47.822;9.402;2023-07-30T07:19:04;16.10;99.90
15959;DHT22;8078;47.822;9.402;2023-07-30T07:21:30;16.10;99.90
15959;DHT22;8078;47.822;9.402;2023-07-30T07:23:56;16.10;99.90
15959;DHT22;8078;47.822;9.402;2023-07-30T07:26:21;16.30;99.90
15959;DHT22;8078;47.822;9.402;2023-07-30T07:28:47;16.50;99.90
15959;DHT22;8078;47.822;9.402;2023-07-30T07:31:12;16.70;99.90
15959;DHT22;8078;47.822;9.402;2023-07-30T07:33:38;16.60;99.90
15959;DHT22;8078;47.822;9.402;2023-07-30T07:36:05;16.60;99.90
15959;DHT22;8078;47.822;9.402;2023-07-30T07:38:31;16.70;99.90
15959;DHT22;8078;47.822;9.402;2023-07-30T07:40:57;16.70;99.90
15959;DHT22;8078;47.822;9.402;2023-07-30T07:43:23;16.90;99.90
15959;DHT22;8078;47.822;9.402;2023-07-30T07:45:49;17.10;99.90
15959;DHT22;8078;47.822;9.402;2023-07-30T07:48:14;17.00;99.90
15959;DHT22;8078;47.822;9.402;2023-07-30T07:50:40;16.80;99.90
15959;DHT22;8078;47.822;9.402;2023-07-30T07:53:05;17.00;99.90
15959;DHT22;8078;47.822;9.402;2023-07-30T07:55:31;17.10;99.90
15959;DHT22;8078;47.822;9.402;2023-07-30T07:57:57;17.40;99.90
15959;DHT22;8078;47.822;9.402;2023-07-30T08:00:22;17.70;99.90
15959;DHT22;8078;47.822;9.402;2023-07-30T08:02:48;17.70;99.90
15959;DHT22;8078;47.822;9.402;2023-07-30T08:05:13;17.60;99.90
15959;DHT22;8078;47.822;9.402;2023-07-30T08:07:39;17.60;99.90
15959;DHT22;8078;47.822;9.402;2023-07-30T08:10:05;17.70;99.90
15959;DHT22;8078;47.822;9.402;2023-07-30T08:12:32;17.40;99.90
15959;DHT22;8078;47.822;9.402;2023-07-30T08:14:58;17.70;99.90
15959;DHT22;8078;47.822;9.402;2023-07-30T08:17:24;18.20;99.90
15959;DHT22;8078;47.822;9.402;2023-07-30T08:19:50;18.00;99.90
15959;DHT22;8078;47.822;9.402;2023-07-30T08:22:15;18.00;99.90
15959;DHT22;8078;47.822;9.402;2023-07-30T08:24:41;17.80;99.90
15959;DHT22;8078;47.822;9.402;2023-07-30T08:27:06;17.90;99.90
15959;DHT22;8078;47.822;9.402;2023-07-30T08:29:32;17.80;99.90
15959;DHT22;8078;47.822;9.402;2023-07-30T08:31:57;18.10;99.90
15959;DHT22;8078;47.822;9.402;2023-07-30T08:34:23;17.80;99.90
15959;DHT22;8078;47.822;9.402;2023-07-30T08:36:49;17.60;99.90
15959;DHT22;8078;47.822;9.402;2023-07-30T08:39:14;17.70;99.90
15959;DHT22;8078;47.822;9.402;2023-07-30T08:41:40;18.00;99.90
15959;DHT22;8078;47.822;9.402;2023-07-30T08:44:06;18.00;99.90
15959;DHT22;8078;47.822;9.402;2023-07-30T08:46:32;17.90;99.90
15959;DHT22;8078;47.822;9.402;2023-07-30T08:48:57;17.70;99.90
15959;DHT22;8078;47.822;9.402;2023-07-30T08:51:23;17.80;99.90
15959;DHT22;8078;47.822;9.402;2023-07-30T08:53:51;17.80;99.90
15959;DHT22;8078;47.822;9.402;2023-07-30T08:56:17;17.60;99.90
15959;DHT22;8078;47.822;9.402;2023-07-30T08:58:44;17.30;99.90
15959;DHT22;8078;47.822;9.402;2023-07-30T09:01:11;16.90;99.90
15959;DHT22;8078;47.822;9.402;2023-07-30T09:03:39;16.90;99.90
15959;DHT22;8078;47.822;9.402;2023-07-30T09:06:05;17.20;99.90
15959;DHT22;8078;47.822;9.402;2023-07-30T09:08:30;17.40;99.90
15959;DHT22;8078;47.822;9.402;2023-07-30T09:11:05;17.70;99.90
15959;DHT22;8078;47.822;9.402;2023-07-30T09:13:39;18.20;99.90
15959;DHT22;8078;47.822;9.402;2023-07-30T09:16:12;18.20;99.90
15959;DHT22;8078;47.822;9.402;2023-07-30T09:18:42;18.00;99.90
15959;DHT22;8078;47.822;9.402;2023-07-30T09:21:09;17.90;99.90
15959;DHT22;8078;47.822;9.402;2023-07-30T09:23:43;18.50;99.90
15959;DHT22;8078;47.822;9.402;2023-07-30T09:26:09;18.60;99.90
15959;DHT22;8078;47.822;9.402;2023-07-30T09:28:35;18.20;99.90
15959;DHT22;8078;47.822;9.402;2023-07-30T09:31:04;18.30;99.90
15959;DHT22;8078;47.822;9.402;2023-07-30T09:33:34;18.60;99.90
15959;DHT22;8078;47.822;9.402;2023-07-30T09:36:04;18.80;99.90
15959;DHT22;8078;47.822;9.402;2023-07-30T09:38:30;19.00;99.90
15959;DHT22;8078;47.822;9.402;2023-07-30T09:41:02;18.80;99.90
15959;DHT22;8078;47.822;9.402;2023-07-30T09:43:34;18.70;99.90
15959;DHT22;8078;47.822;9.402;2023-07-30T09:46:05;18.80;1.00
15959;DHT22;8078;47.822;9.402;2023-07-30T09:48:34;18.70;1.00
15959;DHT22;8078;47.822;9.402;2023-07-30T09:51:01;18.60;1.00
15959;DHT22;8078;47.822;9.402;2023-07-30T09:53:32;18.70;1.00
15959;DHT22;8078;47.822;9.402;2023-07-30T09:56:04;18.10;14.40
15959;DHT22;8078;47.822;9.402;2023-07-30T09:58:31;17.70;1.00
15959;DHT22;8078;47.822;9.402;2023-07-30T10:01:00;17.80;1.00
15959;DHT22;8078;47.822;9.402;2023-07-30T10:03:26;18.10;1.00
15959;DHT22;8078;47.822;9.402;2023-07-30T10:05:58;18.30;99.90
15959;DHT22;8078;47.822;9.402;2023-07-30T10:08:31;18.70;1.00
15959;DHT22;8078;47.822;9.402;2023-07-30T10:10:58;19.00;99.90
15959;DHT22;8078;47.822;9.402;2023-07-30T10:13:26;18.70;99.90
15959;DHT22;8078;47.822;9.402;2023-07-30T10:15:52;18.40;1.00
15959;DHT22;8078;47.822;9.402;2023-07-30T10:18:18;18.50;99.90
15959;DHT22;8078;47.822;9.402;2023-07-30T10:20:52;18.40;36.20
15959;DHT22;8078;47.822;9.402;2023-07-30T10:23:19;18.40;1.00
15959;DHT22;8078;47.822;9.402;2023-07-30T10:25:52;18.90;1.00
15959;DHT22;8078;47.822;9.402;2023-07-30T10:31:05;19.40;1.00
15959;DHT22;8078;47.822;9.402;2023-07-30T10:33:46;19.50;1.00
15959;DHT22;8078;47.822;9.402;2023-07-30T10:36:12;19.30;1.00
15959;DHT22;8078;47.822;9.402;2023-07-30T10:38:39;19.30;1.00
15959;DHT22;8078;47.822;9.402;2023-07-30T10:41:15;19.30;99.90
15959;DHT22;8078;47.822;9.402;2023-07-30T10:43:47;18.90;1.00
15959;DHT22;8078;47.822;9.402;2023-07-30T10:46:15;18.90;4.00
15959;DHT22;8078;47.822;9.402;2023-07-30T10:48:42;19.30;99.90
15959;DHT22;8078;47.822;9.402;2023-07-30T10:51:10;19.00;1.00
15959;DHT22;8078;47.822;9.402;2023-07-30T10:53:36;19.00;1.00
15959;DHT22;8078;47.822;9.402;2023-07-30T10:56:04;19.10;99.90
15959;DHT22;8078;47.822;9.402;2023-07-30T10:58:30;19.30;1.00
15959;DHT22;8078;47.822;9.402;2023-07-30T11:00:57;19.60;1.00
15959;DHT22;8078;47.822;9.402;2023-07-30T11:03:26;19.90;99.90
15959;DHT22;8078;47.822;9.402;2023-07-30T11:05:53;19.60;99.90
15959;DHT22;8078;47.822;9.402;2023-07-30T11:08:18;19.60;99.90
15959;DHT22;8078;47.822;9.402;2023-07-30T11:10:47;19.40;1.00
15959;DHT22;8078;47.822;9.402;2023-07-30T11:13:13;19.30;1.00
15959;DHT22;8078;47.822;9.402;2023-07-30T11:15:43;19.50;1.00
15959;DHT22;8078;47.822;9.402;2023-07-30T11:18:09;19.00;99.90
15959;DHT22;8078;47.822;9.402;2023-07-30T11:20:35;18.60;99.90
15959;DHT22;8078;47.822;9.402;2023-07-30T11:23:02;18.60;99.90
15959;DHT22;8078;47.822;9.402;2023-07-30T11:25:27;18.80;30.00
15959;DHT22;8078;47.822;9.402;2023-07-30T11:27:53;19.10;99.90
15959;DHT22;8078;47.822;9.402;2023-07-30T11:30:18;19.10;1.00
15959;DHT22;8078;47.822;9.402;2023-07-30T11:32:45;19.60;99.90
15959;DHT22;8078;47.822;9.402;2023-07-30T11:35:11;19.50;99.90
15959;DHT22;8078;47.822;9.402;2023-07-30T11:37:38;19.90;99.90
15959;DHT22;8078;47.822;9.402;2023-07-30T11:40:07;20.10;1.00
15959;DHT22;8078;47.822;9.402;2023-07-30T11:42:34;20.50;1.00
15959;DHT22;8078;47.822;9.402;2023-07-30T11:45:20;20.50;99.90
15959;DHT22;8078;47.822;9.402;2023-07-30T11:47:47;20.60;1.00
15959;DHT22;8078;47.822;9.402;2023-07-30T11:50:13;20.60;1.00
15959;DHT22;8078;47.822;9.402;2023-07-30T11:52:55;20.00;1.00
15959;DHT22;8078;47.822;9.402;2023-07-30T11:55:22;20.00;1.00
15959;DHT22;8078;47.822;9.402;2023-07-30T11:57:49;20.00;99.90
15959;DHT22;8078;47.822;9.402;2023-07-30T12:00:15;20.20;99.90
15959;DHT22;8078;47.822;9.402;2023-07-30T12:02:41;20.20;1.00
15959;DHT22;8078;47.822;9.402;2023-07-30T12:05:10;19.90;99.90
15959;DHT22;8078;47.822;9.402;2023-07-30T12:07:39;20.00;1.00
15959;DHT22;8078;47.822;9.402;2023-07-30T12:10:12;20.10;1.00
15959;DHT22;8078;47.822;9.402;2023-07-30T12:12:45;20.20;1.00
15959;DHT22;8078;47.822;9.402;2023-07-30T12:15:11;20.40;1.00
15959;DHT22;8078;47.822;9.402;2023-07-30T12:17:38;20.20;1.00
15959;DHT22;8078;47.822;9.402;2023-07-30T12:20:04;20.30;1.40
15959;DHT22;8078;47.822;9.402;2023-07-30T12:22:35;20.20;1.00
15959;DHT22;8078;47.822;9.402;2023-07-30T12:25:02;19.60;1.00
15959;DHT22;8078;47.822;9.402;2023-07-30T12:27:28;19.90;1.00
15959;DHT22;8078;47.822;9.402;2023-07-30T12:29:54;20.20;1.00
15959;DHT22;8078;47.822;9.402;2023-07-30T12:32:20;20.80;17.60
15959;DHT22;8078;47.822;9.402;2023-07-30T12:34:45;20.90;1.00
15959;DHT22;8078;47.822;9.402;2023-07-30T12:37:11;21.20;51.10
15959;DHT22;8078;47.822;9.402;2023-07-30T12:39:37;21.00;48.60
15959;DHT22;8078;47.822;9.402;2023-07-30T12:42:02;20.80;27.10
15959;DHT22;8078;47.822;9.402;2023-07-30T12:44:28;20.40;59.80
15959;DHT22;8078;47.822;9.402;2023-07-30T12:46:54;20.60;66.60
15959;DHT22;8078;47.822;9.402;2023-07-30T12:49:19;21.30;95.60
15959;DHT22;8078;47.822;9.402;2023-07-30T12:51:45;20.80;94.20
15959;DHT22;8078;47.822;9.402;2023-07-30T12:54:10;21.10;95.80
15959;DHT22;8078;47.822;9.402;2023-07-30T12:56:36;20.70;90.50
15959;DHT22;8078;47.822;9.402;2023-07-30T12:59:01;20.40;83.30
15959;DHT22;8078;47.822;9.402;2023-07-30T13:01:27;20.60;90.40
15959;DHT22;8078;47.822;9.402;2023-07-30T13:03:52;20.70;90.50
15959;DHT22;8078;47.822;9.402;2023-07-30T13:06:20;20.70;90.10
15959;DHT22;8078;47.822;9.402;2023-07-30T13:08:46;20.70;89.00
15959;DHT22;8078;47.822;9.402;2023-07-30T13:11:11;20.90;90.60
15959;DHT22;8078;47.822;9.402;2023-07-30T13:13:37;21.00;93.00
15959;DHT22;8078;47.822;9.402;2023-07-30T13:16:03;20.80;89.40
15959;DHT22;8078;47.822;9.402;2023-07-30T13:18:29;20.60;81.70
15959;DHT22;8078;47.822;9.402;2023-07-30T13:20:54;20.50;84.90
15959;DHT22;8078;47.822;9.402;2023-07-30T13:23:20;20.80;90.90
15959;DHT22;8078;47.822;9.402;2023-07-30T13:25:46;20.80;89.20
15959;DHT22;8078;47.822;9.402;2023-07-30T13:28:11;20.90;88.90
15959;DHT22;8078;47.822;9.402;2023-07-30T13:30:37;20.60;86.70
15959;DHT22;8078;47.822;9.402;2023-07-30T13:33:02;21.00;91.70
15959;DHT22;8078;47.822;9.402;2023-07-30T13:35:28;20.80;91.50
15959;DHT22;8078;47.822;9.402;2023-07-30T13:37:53;20.90;86.40
15959;DHT22;8078;47.822;9.402;2023-07-30T13:40:19;20.80;90.20
15959;DHT22;8078;47.822;9.402;2023-07-30T13:42:45;20.90;89.40
15959;DHT22;8078;47.822;9.402;2023-07-30T13:45:10;21.00;96.80
15959;DHT22;8078;47.822;9.402;2023-07-30T13:47:36;21.10;98.10
15959;DHT22;8078;47.822;9.402;2023-07-30T13:50:01;21.30;96.20
15959;DHT22;8078;47.822;9.402;2023-07-30T13:52:27;21.50;98.40
15959;DHT22;8078;47.822;9.402;2023-07-30T13:54:52;21.10;93.30
15959;DHT22;8078;47.822;9.402;2023-07-30T13:57:25;21.10;89.70
15959;DHT22;8078;47.822;9.402;2023-07-30T13:59:51;21.20;92.10
15959;DHT22;8078;47.822;9.402;2023-07-30T14:02:17;20.80;82.10
15959;DHT22;8078;47.822;9.402;2023-07-30T14:04:42;20.80;82.40
15959;DHT22;8078;47.822;9.402;2023-07-30T14:07:08;20.90;83.80
15959;DHT22;8078;47.822;9.402;2023-07-30T14:09:33;21.20;83.20
15959;DHT22;8078;47.822;9.402;2023-07-30T14:12:02;21.20;80.50
15959;DHT22;8078;47.822;9.402;2023-07-30T14:14:28;21.30;85.80
15959;DHT22;8078;47.822;9.402;2023-07-30T14:16:54;21.60;90.80
15959;DHT22;8078;47.822;9.402;2023-07-30T14:19:20;21.60;89.10
15959;DHT22;8078;47.822;9.402;2023-07-30T14:21:45;21.40;80.00
15959;DHT22;8078;47.822;9.402;2023-07-30T14:24:11;21.50;85.10
15959;DHT22;8078;47.822;9.402;2023-07-30T14:26:37;21.40;81.20
15959;DHT22;8078;47.822;9.402;2023-07-30T14:29:02;21.40;90.60
15959;DHT22;8078;47.822;9.402;2023-07-30T14:31:28;21.40;80.20
15959;DHT22;8078;47.822;9.402;2023-07-30T14:33:53;21.30;77.80
15959;DHT22;8078;47.822;9.402;2023-07-30T14:36:19;21.50;84.50
15959;DHT22;8078;47.822;9.402;2023-07-30T14:38:44;21.20;59.80
15959;DHT22;8078;47.822;9.402;2023-07-30T14:41:10;21.30;84.80
15959;DHT22;8078;47.822;9.402;2023-07-30T14:43:37;21.30;75.40
15959;DHT22;8078;47.822;9.402;2023-07-30T14:46:02;21.10;70.90
15959;DHT22;8078;47.822;9.402;2023-07-30T14:48:28;21.20;66.20
15959;DHT22;8078;47.822;9.402;2023-07-30T14:50:54;21.50;72.20
15959;DHT22;8078;47.822;9.402;2023-07-30T14:53:20;21.80;82.20
15959;DHT22;8078;47.822;9.402;2023-07-30T14:55:45;21.80;88.40
15959;DHT22;8078;47.822;9.402;2023-07-30T14:58:11;21.80;56.20
15959;DHT22;8078;47.822;9.402;2023-07-30T15:00:37;21.50;51.50
15959;DHT22;8078;47.822;9.402;2023-07-30T15:03:02;21.90;76.60
15959;DHT22;8078;47.822;9.402;2023-07-30T15:05:30;21.90;75.30
15959;DHT22;8078;47.822;9.402;2023-07-30T15:07:55;22.00;84.50
15959;DHT22;8078;47.822;9.402;2023-07-30T15:10:21;21.70;60.70
15959;DHT22;8078;47.822;9.402;2023-07-30T15:12:52;21.90;87.80
15959;DHT22;8078;47.822;9.402;2023-07-30T15:15:18;21.80;1.00
15959;DHT22;8078;47.822;9.402;2023-07-30T15:17:44;21.60;1.00
15959;DHT22;8078;47.822;9.402;2023-07-30T15:20:10;22.10;1.00
15959;DHT22;8078;47.822;9.402;2023-07-30T15:22:35;21.80;1.00
15959;DHT22;8078;47.822;9.402;2023-07-30T15:25:01;21.90;1.00
15959;DHT22;8078;47.822;9.402;2023-07-30T15:27:28;22.10;1.00
15959;DHT22;8078;47.822;9.402;2023-07-30T15:29:54;21.70;1.00
15959;DHT22;8078;47.822;9.402;2023-07-30T15:32:22;22.20;1.00
15959;DHT22;8078;47.822;9.402;2023-07-30T15:34:48;22.60;1.00
15959;DHT22;8078;47.822;9.402;2023-07-30T15:37:13;22.00;1.00
15959;DHT22;8078;47.822;9.402;2023-07-30T15:39:39;21.70;1.00
15959;DHT22;8078;47.822;9.402;2023-07-30T15:42:06;21.50;1.00
15959;DHT22;8078;47.822;9.402;2023-07-30T15:44:32;21.60;1.00